createdAt,value
2022-11-27T00:00:02.540Z,72.40
2022-11-27T00:02:40.920Z,72.40
2022-11-27T00:05:10.802Z,72.60
2022-11-27T00:07:38.769Z,72.80
2022-11-27T00:10:07.964Z,73.10
2022-11-27T00:12:36.372Z,72.90
2022-11-27T00:15:04.321Z,72.50
2022-11-27T00:17:32.255Z,72.20
2022-11-27T00:20:00.192Z,72.20
2022-11-27T00:22:29.457Z,72.30
2022-11-27T00:24:57.322Z,72.60
2022-11-27T00:27:26.109Z,72.50
2022-11-27T00:29:54.243Z,72.40
2022-11-27T00:32:22.114Z,73.00
2022-11-27T00:34:49.979Z,72.40
2022-11-27T00:37:17.854Z,72.50
2022-11-27T00:39:48.144Z,72.90
2022-11-27T00:42:16.074Z,72.80
2022-11-27T00:44:44.088Z,72.40
2022-11-27T00:47:11.969Z,72.00
2022-11-27T00:49:39.867Z,71.70
2022-11-27T00:52:07.748Z,71.70
2022-11-27T00:54:35.714Z,72.10
2022-11-27T00:57:05.503Z,72.10
2022-11-27T00:59:33.383Z,71.90
2022-11-27T01:02:01.323Z,71.90
2022-11-27T01:04:30.257Z,72.20
2022-11-27T01:06:58.127Z,72.30
2022-11-27T01:09:26.009Z,72.70
2022-11-27T01:11:53.901Z,72.60
2022-11-27T01:14:23.155Z,72.50
2022-11-27T01:16:51.079Z,72.40
2022-11-27T01:19:19.380Z,72.50
2022-11-27T01:21:47.280Z,72.50
2022-11-27T01:24:15.862Z,72.90
2022-11-27T01:26:43.942Z,72.80
2022-11-27T01:29:12.326Z,72.70
2022-11-27T01:31:41.741Z,72.70
2022-11-27T01:34:12.563Z,72.50
2022-11-27T01:36:40.472Z,72.60
2022-11-27T01:39:08.494Z,72.90
2022-11-27T01:41:37.246Z,73.00
2022-11-27T01:44:20.603Z,72.90
2022-11-27T01:46:50.171Z,72.40
2022-11-27T01:49:25.987Z,72.00
2022-11-27T01:51:55.796Z,71.80
2022-11-27T01:54:25.393Z,71.90
2022-11-27T01:56:56.313Z,72.20
2022-11-27T01:59:25.968Z,72.00
2022-11-27T02:01:55.299Z,72.00
2022-11-27T02:04:23.232Z,72.00
2022-11-27T02:06:51.121Z,72.20
2022-11-27T02:09:19.028Z,72.30
2022-11-27T02:11:51.261Z,72.70
2022-11-27T02:14:23.123Z,72.50
2022-11-27T02:16:54.209Z,72.40
2022-11-27T02:19:28.006Z,72.50
2022-11-27T02:21:57.369Z,72.50
2022-11-27T02:24:34.751Z,72.60
2022-11-27T02:27:13.442Z,72.90
2022-11-27T02:29:42.689Z,72.70
2022-11-27T02:32:12.141Z,72.60
2022-11-27T02:34:44.480Z,72.50
2022-11-27T02:37:14.488Z,72.60
2022-11-27T02:39:44.138Z,72.70
2022-11-27T02:42:14.977Z,73.00
2022-11-27T02:44:47.175Z,72.90
2022-11-27T02:47:15.596Z,72.40
2022-11-27T02:49:43.756Z,72.10
2022-11-27T02:52:12.652Z,71.90
2022-11-27T02:54:40.686Z,71.80
2022-11-27T02:57:08.690Z,72.30
2022-11-27T02:59:36.560Z,72.10
2022-11-27T03:02:11.249Z,72.10
2022-11-27T03:04:43.435Z,72.10
2022-11-27T03:07:13.509Z,72.20
2022-11-27T03:09:43.471Z,72.40
2022-11-27T03:12:11.630Z,72.70
2022-11-27T03:14:42.757Z,72.50
2022-11-27T03:17:17.332Z,72.60
2022-11-27T03:19:49.188Z,72.50
2022-11-27T03:22:17.075Z,72.50
2022-11-27T03:24:45.022Z,72.60
2022-11-27T03:27:13.827Z,73.00
2022-11-27T03:29:44.197Z,73.00
2022-11-27T03:32:13.458Z,72.50
2022-11-27T03:34:41.566Z,72.20
2022-11-27T03:37:09.657Z,71.90
2022-11-27T03:39:37.543Z,71.80
2022-11-27T03:42:10.650Z,72.20
2022-11-27T03:44:42.556Z,72.20
2022-11-27T03:47:16.760Z,72.10
2022-11-27T03:49:53.130Z,72.10
2022-11-27T03:52:24.135Z,72.10
2022-11-27T03:54:57.160Z,72.30
2022-11-27T03:57:29.296Z,72.50
2022-11-27T03:59:57.850Z,72.80
2022-11-27T04:02:31.727Z,72.50
2022-11-27T04:04:59.659Z,72.40
2022-11-27T04:07:27.625Z,72.10
2022-11-27T04:09:55.608Z,72.20
2022-11-27T04:12:23.476Z,72.40
2022-11-27T04:14:51.351Z,72.70
2022-11-27T04:17:19.248Z,72.60
2022-11-27T04:19:48.572Z,72.40
2022-11-27T04:22:16.469Z,72.50
2022-11-27T04:24:44.382Z,72.60
2022-11-27T04:27:12.285Z,72.80
2022-11-27T04:29:40.160Z,73.10
2022-11-27T04:32:08.074Z,73.00
2022-11-27T04:34:35.968Z,72.60
2022-11-27T04:37:05.218Z,72.30
2022-11-27T04:39:33.108Z,72.10
2022-11-27T04:42:01.064Z,72.00
2022-11-27T04:44:28.959Z,72.50
2022-11-27T04:46:56.912Z,72.30
2022-11-27T04:49:24.857Z,72.20
2022-11-27T04:51:52.744Z,72.10
2022-11-27T04:54:22.163Z,72.30
2022-11-27T04:56:50.152Z,72.40
2022-11-27T04:59:18.043Z,72.60
2022-11-27T05:01:45.898Z,72.60
2022-11-27T05:04:13.785Z,72.50
2022-11-27T05:06:41.692Z,72.40
2022-11-27T05:09:09.608Z,72.40
2022-11-27T05:11:38.897Z,72.50
2022-11-27T05:14:16.798Z,72.80
2022-11-27T05:16:45.731Z,72.90
2022-11-27T05:19:14.201Z,72.60
2022-11-27T05:21:42.254Z,72.20
2022-11-27T05:24:10.239Z,71.90
2022-11-27T05:26:39.974Z,71.80
2022-11-27T05:29:07.962Z,72.20
2022-11-27T05:31:35.986Z,72.20
2022-11-27T05:34:04.084Z,72.00
2022-11-27T05:36:32.080Z,72.00
2022-11-27T05:39:00.742Z,72.00
2022-11-27T05:41:28.712Z,72.10
2022-11-27T05:43:57.951Z,72.40
2022-11-27T05:46:25.926Z,72.70
2022-11-27T05:48:53.901Z,72.40
2022-11-27T05:51:21.825Z,72.30
2022-11-27T05:53:49.758Z,72.30
2022-11-27T05:56:18.636Z,72.50
2022-11-27T05:58:47.849Z,72.80
2022-11-27T06:01:17.488Z,72.90
2022-11-27T06:03:45.546Z,72.70
2022-11-27T06:06:14.455Z,72.30
2022-11-27T06:08:42.372Z,72.00
2022-11-27T06:11:10.328Z,71.80
2022-11-27T06:13:38.415Z,71.90
2022-11-27T06:16:07.896Z,72.30
2022-11-27T06:18:37.280Z,72.00
2022-11-27T06:21:08.074Z,72.00
2022-11-27T06:23:36.036Z,72.70
2022-11-27T06:26:14.457Z,72.00
2022-11-27T06:28:42.433Z,72.30
2022-11-27T06:31:15.965Z,72.70
2022-11-27T06:33:46.920Z,72.50
2022-11-27T06:36:14.880Z,72.30
2022-11-27T06:38:42.901Z,72.30
2022-11-27T06:41:12.186Z,72.40
2022-11-27T06:43:40.118Z,72.50
2022-11-27T06:46:09.017Z,72.80
2022-11-27T06:48:37.007Z,73.50
2022-11-27T06:51:07.551Z,72.40
2022-11-27T06:53:36.664Z,72.10
2022-11-27T06:56:04.759Z,71.90
2022-11-27T06:58:32.665Z,71.80
2022-11-27T07:01:00.740Z,72.10
2022-11-27T07:03:28.646Z,72.90
2022-11-27T07:05:56.617Z,72.10
2022-11-27T07:08:25.868Z,71.90
2022-11-27T07:10:53.769Z,72.00
2022-11-27T07:13:21.710Z,72.20
2022-11-27T07:15:49.611Z,72.40
2022-11-27T07:18:17.509Z,72.50
2022-11-27T07:20:56.279Z,72.50
2022-11-27T07:23:26.026Z,72.40
2022-11-27T07:25:53.945Z,72.50
2022-11-27T07:28:21.978Z,72.50
2022-11-27T07:30:55.546Z,72.80
2022-11-27T07:33:23.535Z,72.90
2022-11-27T07:35:51.453Z,72.70
2022-11-27T07:38:19.348Z,72.30
2022-11-27T07:40:48.606Z,72.00
2022-11-27T07:43:16.461Z,71.90
2022-11-27T07:45:44.385Z,72.00
2022-11-27T07:48:12.320Z,72.40
2022-11-27T07:50:40.615Z,72.20
2022-11-27T07:53:08.558Z,72.00
2022-11-27T07:55:38.861Z,72.10
2022-11-27T07:58:08.157Z,72.20
2022-11-27T08:00:36.177Z,72.30
2022-11-27T08:03:04.218Z,72.60
2022-11-27T08:05:34.229Z,72.40
2022-11-27T08:08:04.227Z,72.30
2022-11-27T08:10:32.496Z,72.30
2022-11-27T08:13:00.442Z,72.40
2022-11-27T08:15:29.757Z,72.60
2022-11-27T08:17:57.686Z,72.80
2022-11-27T08:20:25.746Z,72.70
2022-11-27T08:22:55.954Z,72.70
2022-11-27T08:25:27.599Z,72.60
2022-11-27T08:27:55.488Z,72.60
2022-11-27T08:30:23.682Z,72.70
2022-11-27T08:32:52.974Z,73.00
2022-11-27T08:35:22.502Z,73.00
2022-11-27T08:37:50.537Z,72.60
2022-11-27T08:40:18.552Z,72.20
2022-11-27T08:42:46.464Z,71.80
2022-11-27T08:45:14.358Z,72.00
2022-11-27T08:47:43.378Z,72.00
2022-11-27T08:50:12.742Z,71.90
2022-11-27T08:52:40.671Z,71.90
2022-11-27T08:55:09.587Z,71.90
2022-11-27T08:57:37.869Z,72.00
2022-11-27T09:00:08.088Z,72.10
2022-11-27T09:02:36.080Z,72.30
2022-11-27T09:05:06.357Z,72.50
2022-11-27T09:07:35.670Z,72.30
2022-11-27T09:10:03.691Z,72.30
2022-11-27T09:12:31.654Z,72.40
2022-11-27T09:14:59.578Z,72.50
2022-11-27T09:17:27.491Z,72.60
2022-11-27T09:19:55.405Z,72.90
2022-11-27T09:22:23.287Z,72.60
2022-11-27T09:24:52.524Z,72.60
2022-11-27T09:27:20.446Z,72.60
2022-11-27T09:29:49.530Z,72.70
2022-11-27T09:32:17.516Z,72.70
2022-11-27T09:34:45.524Z,73.10
2022-11-27T09:37:13.460Z,73.00
2022-11-27T09:39:41.345Z,72.60
2022-11-27T09:42:13.903Z,72.10
2022-11-27T09:44:45.235Z,71.80
2022-11-27T09:47:16.902Z,71.60
2022-11-27T09:49:46.798Z,72.00
2022-11-27T09:52:18.792Z,71.90
2022-11-27T09:54:52.594Z,71.80
2022-11-27T09:57:25.500Z,71.90
2022-11-27T09:59:53.690Z,71.90
2022-11-27T10:02:25.769Z,72.80
2022-11-27T10:05:23.942Z,72.50
2022-11-27T10:07:47.395Z,72.30
2022-11-27T10:10:29.091Z,72.30
2022-11-27T10:13:01.314Z,72.40
2022-11-27T10:15:34.056Z,72.50
2022-11-27T10:18:04.066Z,72.60
2022-11-27T10:20:35.299Z,72.90
2022-11-27T10:23:06.124Z,72.60
2022-11-27T10:25:35.799Z,72.60
2022-11-27T10:28:14.782Z,72.60
2022-11-27T10:30:46.543Z,72.70
2022-11-27T10:33:18.822Z,72.70
2022-11-27T10:35:47.791Z,73.10
2022-11-27T10:38:18.398Z,73.00
2022-11-27T10:40:47.782Z,72.70
2022-11-27T10:43:19.352Z,72.20
2022-11-27T10:45:48.882Z,71.80
2022-11-27T10:48:16.869Z,71.70
2022-11-27T10:50:45.840Z,72.00
2022-11-27T10:53:17.334Z,72.00
2022-11-27T10:56:15.024Z,71.90
2022-11-27T10:58:45.693Z,71.90
2022-11-27T11:01:16.730Z,72.00
2022-11-27T11:03:44.697Z,72.00
2022-11-27T11:06:21.977Z,72.50
2022-11-27T11:09:01.577Z,72.30
2022-11-27T11:11:29.609Z,72.20
2022-11-27T11:13:58.895Z,72.30
2022-11-27T11:16:34.792Z,72.40
2022-11-27T11:19:03.446Z,73.20
2022-11-27T11:21:32.723Z,72.80
2022-11-27T11:24:01.726Z,72.90
2022-11-27T11:26:30.681Z,72.60
2022-11-27T11:29:01.061Z,72.00
2022-11-27T11:31:30.984Z,71.60
2022-11-27T11:33:59.901Z,71.70
2022-11-27T11:36:27.930Z,72.10
2022-11-27T11:38:55.848Z,72.10
2022-11-27T11:41:24.476Z,71.80
2022-11-27T11:44:01.222Z,71.90
2022-11-27T11:46:30.794Z,72.10
2022-11-27T11:49:01.049Z,72.20
2022-11-27T11:51:47.990Z,72.30
2022-11-27T11:54:25.195Z,72.60
2022-11-27T11:56:53.416Z,72.40
2022-11-27T11:59:26.994Z,72.30
2022-11-27T12:02:07.653Z,72.30
2022-11-27T12:04:54.207Z,72.40
2022-11-27T12:07:27.740Z,72.70
2022-11-27T12:09:58.482Z,72.50
2022-11-27T12:12:34.864Z,72.40
2022-11-27T12:15:05.713Z,72.20
2022-11-27T12:17:43.498Z,71.90
2022-11-27T12:20:19.647Z,72.10
2022-11-27T12:23:31.297Z,71.90
2022-11-27T12:26:04.980Z,71.70
2022-11-27T12:28:44.930Z,71.10
2022-11-27T12:31:18.377Z,70.70
2022-11-27T12:33:56.449Z,70.90
2022-11-27T12:36:27.869Z,70.90
2022-11-27T12:39:04.854Z,71.10
2022-11-27T12:41:47.094Z,70.90
2022-11-27T12:44:19.077Z,71.10
2022-11-27T12:46:52.529Z,71.30
2022-11-27T12:49:21.694Z,71.40
2022-11-27T12:51:50.680Z,71.50
2022-11-27T12:54:21.980Z,71.60
2022-11-27T12:56:51.887Z,71.50
2022-11-27T12:59:21.948Z,71.60
2022-11-27T13:01:53.504Z,71.60
2022-11-27T13:04:24.432Z,71.70
2022-11-27T13:06:56.218Z,71.80
2022-11-27T13:09:28.454Z,72.00
2022-11-27T13:11:56.354Z,72.00
2022-11-27T13:14:25.564Z,71.90
2022-11-27T13:16:56.783Z,71.80
2022-11-27T13:19:26.413Z,71.90
2022-11-27T13:21:54.569Z,71.90
2022-11-27T13:24:22.610Z,71.80
2022-11-27T13:27:00.783Z,71.60
2022-11-27T13:29:29.675Z,71.10
2022-11-27T13:32:00.654Z,70.50
2022-11-27T13:34:29.674Z,70.40
2022-11-27T13:36:59.196Z,70.70
2022-11-27T13:39:29.655Z,70.60
2022-11-27T13:42:02.792Z,70.40
2022-11-27T13:44:30.754Z,70.70
2022-11-27T13:47:01.300Z,70.80
2022-11-27T13:49:31.556Z,70.80
2022-11-27T13:52:06.876Z,70.90
2022-11-27T13:54:34.763Z,70.90
2022-11-27T13:57:15.816Z,70.60
2022-11-27T13:59:55.176Z,70.80
2022-11-27T14:02:24.519Z,70.80
2022-11-27T14:04:56.354Z,70.90
2022-11-27T14:07:24.696Z,70.80
2022-11-27T14:09:53.642Z,70.80
2022-11-27T14:12:23.368Z,70.50
2022-11-27T14:15:05.795Z,70.10
2022-11-27T14:17:40.390Z,70.10
2022-11-27T14:20:21.748Z,70.00
2022-11-27T14:25:38.481Z,70.30
2022-11-27T14:28:10.766Z,70.50
2022-11-27T14:30:41.858Z,70.20
2022-11-27T14:33:19.338Z,69.90
2022-11-27T14:35:50.023Z,69.50
2022-11-27T14:38:17.943Z,69.60
2022-11-27T14:40:46.203Z,69.80
2022-11-27T14:43:16.643Z,69.80
2022-11-27T14:45:46.075Z,69.90
2022-11-27T14:48:22.096Z,70.00
2022-11-27T14:50:50.150Z,70.10
2022-11-27T14:53:18.808Z,70.30
2022-11-27T14:55:48.399Z,70.40
2022-11-27T14:58:18.277Z,70.50
2022-11-27T15:00:52.773Z,70.40
2022-11-27T15:03:22.324Z,70.00
2022-11-27T15:05:55.366Z,69.70
2022-11-27T15:08:23.348Z,69.70
2022-11-27T15:10:54.041Z,69.90
2022-11-27T15:13:23.901Z,70.00
2022-11-27T15:15:57.218Z,70.00
2022-11-27T15:18:26.563Z,70.10
2022-11-27T15:20:54.637Z,70.20
2022-11-27T15:23:24.325Z,70.40
2022-11-27T15:25:53.512Z,70.60
2022-11-27T15:28:29.035Z,70.90
2022-11-27T15:30:57.200Z,70.70
2022-11-27T15:33:30.411Z,70.80
2022-11-27T15:36:16.494Z,70.90
2022-11-27T15:38:45.438Z,71.00
2022-11-27T15:41:23.900Z,71.10
2022-11-27T15:43:51.972Z,71.50
2022-11-27T15:46:23.885Z,71.40
2022-11-27T15:48:53.303Z,71.10
2022-11-27T15:51:21.233Z,70.70
2022-11-27T15:53:49.272Z,70.60
2022-11-27T15:56:17.320Z,70.90
2022-11-27T15:58:45.338Z,71.10
2022-11-27T16:01:13.421Z,71.10
2022-11-27T16:03:41.379Z,71.00
2022-11-27T16:06:10.779Z,71.20
2022-11-27T16:08:38.737Z,71.50
2022-11-27T16:11:08.063Z,71.60
2022-11-27T16:13:35.973Z,71.60
2022-11-27T16:16:03.913Z,71.70
2022-11-27T16:18:32.731Z,71.70
2022-11-27T16:21:03.721Z,71.80
2022-11-27T16:23:33.170Z,71.80
2022-11-27T16:26:03.120Z,71.80
2022-11-27T16:28:31.261Z,71.90
2022-11-27T16:30:59.973Z,72.10
2022-11-27T16:33:28.054Z,71.90
2022-11-27T16:35:56.234Z,71.40
2022-11-27T16:38:24.579Z,71.00
2022-11-27T16:40:54.095Z,70.80
2022-11-27T16:43:22.598Z,70.90
2022-11-27T16:45:50.749Z,71.10
2022-11-27T16:48:18.690Z,71.00
2022-11-27T16:50:46.645Z,70.90
2022-11-27T16:53:14.579Z,71.00
2022-11-27T16:55:43.187Z,71.20
2022-11-27T16:58:12.483Z,71.20
2022-11-27T17:00:40.531Z,71.70
2022-11-27T17:03:08.763Z,71.50
2022-11-27T17:05:38.147Z,71.50
2022-11-27T17:08:06.435Z,71.50
2022-11-27T17:10:34.411Z,71.50
2022-11-27T17:13:02.344Z,71.60
2022-11-27T17:15:35.205Z,71.90
2022-11-27T17:18:07.162Z,72.00
2022-11-27T17:20:35.092Z,71.70
2022-11-27T17:23:03.631Z,71.40
2022-11-27T17:25:31.613Z,71.10
2022-11-27T17:27:59.977Z,71.10
2022-11-27T17:30:29.216Z,71.30
2022-11-27T17:32:59.057Z,71.50
2022-11-27T17:35:27.097Z,71.30
2022-11-27T17:37:55.338Z,71.30
2022-11-27T17:40:23.244Z,71.40
2022-11-27T17:42:51.149Z,71.60
2022-11-27T17:45:19.205Z,71.10
2022-11-27T17:47:47.124Z,70.60
2022-11-27T17:50:16.551Z,70.90
2022-11-27T17:52:44.899Z,70.90
2022-11-27T17:55:12.992Z,71.00
2022-11-27T17:57:41.820Z,71.20
2022-11-27T18:00:11.023Z,71.40
2022-11-27T18:02:42.004Z,71.70
2022-11-27T18:05:10.591Z,71.50
2022-11-27T18:07:40.157Z,71.60
2022-11-27T18:10:09.404Z,71.60
2022-11-27T18:12:37.393Z,71.60
2022-11-27T18:15:06.263Z,71.90
2022-11-27T18:17:35.443Z,72.10
2022-11-27T18:20:03.801Z,71.80
2022-11-27T18:22:31.731Z,71.40
2022-11-27T18:25:00.991Z,71.00
2022-11-27T18:27:28.885Z,70.90
2022-11-27T18:29:56.823Z,70.80
2022-11-27T18:32:24.738Z,71.20
2022-11-27T18:34:52.823Z,71.10
2022-11-27T18:37:20.954Z,71.10
2022-11-27T18:39:49.205Z,71.00
2022-11-27T18:42:18.457Z,71.20
2022-11-27T18:44:46.348Z,71.40
2022-11-27T18:47:14.490Z,71.70
2022-11-27T18:49:44.588Z,71.50
2022-11-27T18:52:13.459Z,71.60
2022-11-27T18:54:41.981Z,71.50
2022-11-27T18:57:11.049Z,71.50
2022-11-27T18:59:41.271Z,71.60
2022-11-27T19:02:10.573Z,72.10
2022-11-27T19:04:38.795Z,72.00
2022-11-27T19:07:07.020Z,71.70
2022-11-27T19:09:35.000Z,71.30
2022-11-27T19:12:03.272Z,71.10
2022-11-27T19:14:31.974Z,71.10
2022-11-27T19:17:01.364Z,71.60
2022-11-27T19:22:20.541Z,72.00
2022-11-27T19:24:48.667Z,71.30
2022-11-27T19:27:16.692Z,71.40
2022-11-27T19:29:44.964Z,71.60
2022-11-27T19:32:14.732Z,72.10
2022-11-27T19:34:42.900Z,72.50
2022-11-27T19:37:11.045Z,71.70
2022-11-27T19:39:39.544Z,71.70
2022-11-27T19:42:07.600Z,71.80
2022-11-27T19:44:35.828Z,72.00
2022-11-27T19:47:04.270Z,72.20
2022-11-27T19:49:33.579Z,72.20
2022-11-27T19:52:01.465Z,71.90
2022-11-27T19:54:30.120Z,71.50
2022-11-27T19:56:58.368Z,71.20
2022-11-27T19:59:26.956Z,71.20
2022-11-27T20:01:56.408Z,71.60
2022-11-27T20:04:29.216Z,71.70
2022-11-27T20:06:58.641Z,71.40
2022-11-27T20:09:26.525Z,71.30
2022-11-27T20:11:54.657Z,71.50
2022-11-27T20:14:22.654Z,71.60
2022-11-27T20:16:50.898Z,71.90
2022-11-27T20:19:18.942Z,72.00
2022-11-27T20:21:46.907Z,71.80
2022-11-27T20:24:16.205Z,71.80
2022-11-27T20:26:45.245Z,71.90
2022-11-27T20:29:13.920Z,71.90
2022-11-27T20:31:43.687Z,72.30
2022-11-27T20:34:14.324Z,72.40
2022-11-27T20:36:42.303Z,72.10
2022-11-27T20:39:15.034Z,71.70
2022-11-27T20:41:47.096Z,71.50
2022-11-27T20:44:15.791Z,71.50
2022-11-27T20:46:43.738Z,71.60
2022-11-27T20:49:12.192Z,71.90
2022-11-27T20:51:40.477Z,71.70
2022-11-27T20:54:09.254Z,71.60
2022-11-27T20:56:37.466Z,71.70
2022-11-27T20:59:07.876Z,71.70
2022-11-27T21:01:37.051Z,71.70
2022-11-27T21:04:09.173Z,72.10
2022-11-27T21:06:43.226Z,71.90
2022-11-27T21:09:13.619Z,71.80
2022-11-27T21:11:41.731Z,71.80
2022-11-27T21:14:12.793Z,71.90
2022-11-27T21:16:42.487Z,71.90
2022-11-27T21:19:14.623Z,72.30
2022-11-27T21:21:42.749Z,72.20
2022-11-27T21:24:11.380Z,71.80
2022-11-27T21:26:39.979Z,71.40
2022-11-27T21:29:08.286Z,71.20
2022-11-27T21:31:41.640Z,71.10
2022-11-27T21:34:12.875Z,71.40
2022-11-27T21:36:40.933Z,71.40
2022-11-27T21:39:09.578Z,71.20
2022-11-27T21:41:37.538Z,71.20
2022-11-27T21:44:06.117Z,71.40
2022-11-27T21:46:34.931Z,71.50
2022-11-27T21:49:07.594Z,71.90
2022-11-27T21:51:35.855Z,71.80
2022-11-27T21:54:07.343Z,71.70
2022-11-27T21:56:37.668Z,72.10
2022-11-27T21:59:05.817Z,71.80
2022-11-27T22:01:33.800Z,71.90
2022-11-27T22:04:02.599Z,72.30
2022-11-27T22:06:36.766Z,72.20
2022-11-27T22:09:06.003Z,71.90
2022-11-27T22:11:35.405Z,71.60
2022-11-27T22:14:04.317Z,71.40
2022-11-27T22:16:33.412Z,71.50
2022-11-27T22:19:01.698Z,71.80
2022-11-27T22:21:31.461Z,71.80
2022-11-27T22:24:00.990Z,71.60
2022-11-27T22:26:29.105Z,71.60
2022-11-27T22:28:59.294Z,71.80
2022-11-27T22:31:29.544Z,71.90
2022-11-27T22:33:57.910Z,72.00
2022-11-27T22:36:27.301Z,72.20
2022-11-27T22:38:56.761Z,72.00
2022-11-27T22:41:25.798Z,71.70
2022-11-27T22:43:54.010Z,71.40
2022-11-27T22:46:22.951Z,71.40
2022-11-27T22:48:54.648Z,71.50
2022-11-27T22:51:24.172Z,71.70
2022-11-27T22:53:52.183Z,71.60
2022-11-27T22:56:21.444Z,71.60
2022-11-27T22:58:49.334Z,71.60
2022-11-27T23:01:18.424Z,71.70
2022-11-27T23:03:46.566Z,71.70
2022-11-27T23:06:14.959Z,72.10
2022-11-27T23:08:44.081Z,72.00
2022-11-27T23:11:12.336Z,71.90
2022-11-27T23:13:46.336Z,71.80
2022-11-27T23:16:17.374Z,71.90
2022-11-27T23:18:45.448Z,71.90
2022-11-27T23:21:14.623Z,72.30
2022-11-27T23:23:42.600Z,72.30
2022-11-27T23:26:17.486Z,71.80
2022-11-27T23:28:47.266Z,71.50
2022-11-27T23:31:29.410Z,71.20
2022-11-27T23:33:58.743Z,71.30
2022-11-27T23:36:26.628Z,71.60
2022-11-27T23:38:54.555Z,71.40
2022-11-27T23:41:24.375Z,71.40
2022-11-27T23:43:53.856Z,71.50
2022-11-27T23:46:22.682Z,71.60
2022-11-27T23:48:50.909Z,71.80
2022-11-27T23:51:19.840Z,72.10
2022-11-27T23:53:47.799Z,71.90
2022-11-27T23:56:16.742Z,71.80
2022-11-27T23:58:47.226Z,71.90
